createdAt,value
2023-05-17T00:00:28.834Z,21.53
2023-05-17T00:01:28.868Z,21.51
2023-05-17T00:02:28.911Z,21.51
2023-05-17T00:03:28.898Z,21.50
2023-05-17T00:04:29.042Z,21.51
2023-05-17T00:05:29.191Z,21.50
2023-05-17T00:06:29.220Z,21.50
2023-05-17T00:07:29.167Z,21.50
2023-05-17T00:08:29.231Z,21.48
2023-05-17T00:09:29.297Z,21.51
2023-05-17T00:10:29.491Z,21.51
2023-05-17T00:11:29.435Z,21.50
2023-05-17T00:12:29.484Z,21.53
2023-05-17T00:13:29.573Z,21.48
2023-05-17T00:14:29.615Z,21.50
2023-05-17T00:15:29.771Z,21.53
2023-05-17T00:16:29.763Z,21.48
2023-05-17T00:17:29.872Z,21.47
2023-05-17T00:18:30.026Z,21.51
2023-05-17T00:19:29.997Z,21.48
2023-05-17T00:20:30.028Z,21.47
2023-05-17T00:21:30.091Z,21.45
2023-05-17T00:22:30.175Z,21.48
2023-05-17T00:23:30.236Z,21.50
2023-05-17T00:24:30.305Z,21.48
2023-05-17T00:25:30.584Z,21.47
2023-05-17T00:26:30.501Z,21.48
2023-05-17T00:27:30.496Z,21.45
2023-05-17T00:28:30.579Z,21.48
2023-05-17T00:29:30.631Z,21.48
2023-05-17T00:30:30.696Z,21.47
2023-05-17T00:31:30.772Z,21.48
2023-05-17T00:32:30.874Z,21.44
2023-05-17T00:33:30.925Z,21.47
2023-05-17T00:34:31.577Z,21.45
2023-05-17T00:35:31.193Z,21.45
2023-05-17T00:36:31.141Z,21.45
2023-05-17T00:37:31.257Z,21.44
2023-05-17T00:38:31.289Z,21.45
2023-05-17T00:39:31.357Z,21.44
2023-05-17T00:40:31.506Z,21.44
2023-05-17T00:41:31.505Z,21.44
2023-05-17T00:42:31.637Z,21.44
2023-05-17T00:43:31.642Z,21.44
2023-05-17T00:44:31.753Z,21.47
2023-05-17T00:45:31.792Z,21.45
2023-05-17T00:46:32.527Z,21.45
2023-05-17T00:47:32.008Z,21.44
2023-05-17T00:48:32.084Z,21.44
2023-05-17T00:49:32.064Z,21.45
2023-05-17T00:50:32.140Z,21.43
2023-05-17T00:51:32.236Z,21.47
2023-05-17T00:52:32.294Z,21.43
2023-05-17T00:53:32.448Z,21.43
2023-05-17T00:54:32.533Z,21.44
2023-05-17T00:55:32.525Z,21.43
2023-05-17T00:56:32.610Z,21.44
2023-05-17T00:57:32.712Z,21.44
2023-05-17T00:58:32.867Z,21.43
2023-05-17T00:59:32.831Z,21.43
2023-05-17T01:00:32.897Z,21.44
2023-05-17T01:01:32.967Z,21.41
2023-05-17T01:02:33.070Z,21.44
2023-05-17T01:03:33.155Z,21.43
2023-05-17T01:04:33.211Z,21.43
2023-05-17T01:05:33.258Z,21.41
2023-05-17T01:06:33.343Z,21.41
2023-05-17T01:07:33.402Z,21.43
2023-05-17T01:08:33.477Z,21.41
2023-05-17T01:09:33.537Z,21.40
2023-05-17T01:10:33.715Z,21.43
2023-05-17T01:11:33.761Z,21.43
2023-05-17T01:12:33.805Z,21.41
2023-05-17T01:13:33.904Z,21.41
2023-05-17T01:14:34.003Z,21.40
2023-05-17T01:15:34.006Z,21.41
2023-05-17T01:16:34.089Z,21.43
2023-05-17T01:17:34.229Z,21.43
2023-05-17T01:18:34.407Z,21.41
2023-05-17T01:19:37.103Z,21.44
2023-05-17T01:20:34.377Z,21.44
2023-05-17T01:21:34.544Z,21.44
2023-05-17T01:22:34.383Z,21.44
2023-05-17T01:23:34.418Z,21.44
2023-05-17T01:24:34.492Z,21.43
2023-05-17T01:25:34.500Z,21.45
2023-05-17T01:26:34.517Z,21.45
2023-05-17T01:27:34.483Z,21.47
2023-05-17T01:28:34.489Z,21.47
2023-05-17T01:29:34.504Z,21.47
2023-05-17T01:30:34.602Z,21.45
2023-05-17T01:31:34.559Z,21.47
2023-05-17T01:32:34.627Z,21.45
2023-05-17T01:33:34.742Z,21.44
2023-05-17T01:34:34.600Z,21.44
2023-05-17T01:35:34.620Z,21.44
2023-05-17T01:36:34.640Z,21.44
2023-05-17T01:37:34.666Z,21.43
2023-05-17T01:38:34.673Z,21.41
2023-05-17T01:39:34.689Z,21.41
2023-05-17T01:40:34.708Z,21.38
2023-05-17T01:41:34.730Z,21.38
2023-05-17T01:42:34.753Z,21.40
2023-05-17T01:43:34.776Z,21.38
2023-05-17T01:44:34.788Z,21.37
2023-05-17T01:45:34.801Z,21.38
2023-05-17T01:46:34.882Z,21.37
2023-05-17T01:47:34.881Z,21.37
2023-05-17T01:48:34.911Z,21.34
2023-05-17T01:49:34.869Z,21.37
2023-05-17T01:50:34.900Z,21.36
2023-05-17T01:51:34.928Z,21.33
2023-05-17T01:52:34.923Z,21.33
2023-05-17T01:53:34.950Z,21.36
2023-05-17T01:54:34.957Z,21.34
2023-05-17T01:55:34.976Z,21.34
2023-05-17T01:56:34.998Z,21.33
2023-05-17T01:57:35.011Z,21.36
2023-05-17T01:58:35.023Z,21.36
2023-05-17T01:59:35.055Z,21.33
2023-05-17T02:00:35.065Z,21.34
2023-05-17T02:01:35.077Z,21.31
2023-05-17T02:02:35.196Z,21.31
2023-05-17T02:03:35.295Z,21.31
2023-05-17T02:04:35.319Z,21.31
2023-05-17T02:05:35.362Z,21.29
2023-05-17T02:06:35.421Z,21.31
2023-05-17T02:07:35.509Z,21.29
2023-05-17T02:08:35.670Z,21.31
2023-05-17T02:09:35.651Z,21.30
2023-05-17T02:10:35.722Z,21.31
2023-05-17T02:11:36.559Z,21.31
2023-05-17T02:12:35.879Z,21.31
2023-05-17T02:13:35.944Z,21.27
2023-05-17T02:14:36.028Z,21.29
2023-05-17T02:15:36.126Z,21.30
2023-05-17T02:16:36.190Z,21.31
2023-05-17T02:17:36.318Z,21.30
2023-05-17T02:18:36.683Z,21.30
2023-05-17T02:19:36.463Z,21.30
2023-05-17T02:20:36.510Z,21.31
2023-05-17T02:21:36.610Z,21.30
2023-05-17T02:22:36.636Z,21.30
2023-05-17T02:23:36.705Z,21.31
2023-05-17T02:24:36.778Z,21.30
2023-05-17T02:25:36.883Z,21.30
2023-05-17T02:26:36.936Z,21.34
2023-05-17T02:27:37.023Z,21.33
2023-05-17T02:28:37.084Z,21.33
2023-05-17T02:29:37.173Z,21.34
2023-05-17T02:30:37.234Z,21.33
2023-05-17T02:31:37.314Z,21.33
2023-05-17T02:32:37.447Z,21.36
2023-05-17T02:33:37.737Z,21.34
2023-05-17T02:34:37.761Z,21.36
2023-05-17T02:35:37.626Z,21.37
2023-05-17T02:36:38.579Z,21.34
2023-05-17T02:37:37.803Z,21.38
2023-05-17T02:38:37.896Z,21.36
2023-05-17T02:39:37.957Z,21.37
2023-05-17T02:40:38.026Z,21.38
2023-05-17T02:41:38.105Z,21.37
2023-05-17T02:42:38.222Z,21.36
2023-05-17T02:43:38.250Z,21.37
2023-05-17T02:44:38.328Z,21.37
2023-05-17T02:45:38.477Z,21.38
2023-05-17T02:46:38.726Z,21.38
2023-05-17T02:47:38.708Z,21.37
2023-05-17T02:48:38.642Z,21.36
2023-05-17T02:49:38.718Z,21.38
2023-05-17T02:50:38.935Z,21.37
2023-05-17T02:51:38.877Z,21.40
2023-05-17T02:52:38.966Z,21.38
2023-05-17T02:53:39.036Z,21.37
2023-05-17T02:54:39.107Z,21.37
2023-05-17T02:55:39.191Z,21.37
2023-05-17T02:56:39.271Z,21.36
2023-05-17T02:57:39.351Z,21.38
2023-05-17T02:58:39.417Z,21.37
2023-05-17T02:59:40.075Z,21.40
2023-05-17T03:00:39.585Z,21.37
2023-05-17T03:01:39.664Z,21.38
2023-05-17T03:02:39.881Z,21.40
2023-05-17T03:03:39.991Z,21.40
2023-05-17T03:04:39.936Z,21.40
2023-05-17T03:05:39.993Z,21.38
2023-05-17T03:06:40.252Z,21.40
2023-05-17T03:07:40.152Z,21.40
2023-05-17T03:08:40.246Z,21.41
2023-05-17T03:09:40.299Z,21.40
2023-05-17T03:10:40.391Z,21.38
2023-05-17T03:11:40.477Z,21.38
2023-05-17T03:12:40.552Z,21.40
2023-05-17T03:13:41.588Z,21.37
2023-05-17T03:14:40.708Z,21.41
2023-05-17T03:15:40.776Z,21.38
2023-05-17T03:16:40.876Z,21.40
2023-05-17T03:17:40.982Z,21.40
2023-05-17T03:18:41.111Z,21.40
2023-05-17T03:19:41.221Z,21.41
2023-05-17T03:20:42.085Z,21.38
2023-05-17T03:21:41.246Z,21.40
2023-05-17T03:22:41.336Z,21.40
2023-05-17T03:23:41.405Z,21.38
2023-05-17T03:24:41.470Z,21.40
2023-05-17T03:25:41.544Z,21.38
2023-05-17T03:26:41.618Z,21.38
2023-05-17T03:27:41.772Z,21.40
2023-05-17T03:28:41.865Z,21.38
2023-05-17T03:29:41.859Z,21.41
2023-05-17T03:30:41.959Z,21.41
2023-05-17T03:31:42.012Z,21.38
2023-05-17T03:32:42.704Z,21.40
2023-05-17T03:33:42.238Z,21.43
2023-05-17T03:34:42.249Z,21.40
2023-05-17T03:35:42.333Z,21.41
2023-05-17T03:36:42.421Z,21.38
2023-05-17T03:37:42.497Z,21.38
2023-05-17T03:38:42.562Z,21.38
2023-05-17T03:39:42.633Z,21.40
2023-05-17T03:40:42.734Z,21.38
2023-05-17T03:41:42.788Z,21.40
2023-05-17T03:42:42.876Z,21.40
2023-05-17T03:43:42.948Z,21.38
2023-05-17T03:44:43.100Z,21.37
2023-05-17T03:45:43.116Z,21.37
2023-05-17T03:46:43.195Z,21.38
2023-05-17T03:47:43.360Z,21.37
2023-05-17T03:48:43.401Z,21.40
2023-05-17T03:49:43.424Z,21.40
2023-05-17T03:50:43.504Z,21.41
2023-05-17T03:51:43.673Z,21.37
2023-05-17T03:52:43.661Z,21.37
2023-05-17T03:53:43.780Z,21.36
2023-05-17T03:54:44.223Z,21.38
2023-05-17T03:55:43.923Z,21.40
2023-05-17T03:56:43.994Z,21.38
2023-05-17T03:57:44.075Z,21.37
2023-05-17T03:58:44.177Z,21.36
2023-05-17T03:59:44.242Z,21.38
2023-05-17T04:00:44.329Z,21.38
2023-05-17T04:01:44.413Z,21.36
2023-05-17T04:02:44.513Z,21.36
2023-05-17T04:03:44.609Z,21.37
2023-05-17T04:04:44.672Z,21.38
2023-05-17T04:05:44.760Z,21.38
2023-05-17T04:06:44.861Z,21.40
2023-05-17T04:07:44.934Z,21.38
2023-05-17T04:08:45.021Z,21.38
2023-05-17T04:09:45.107Z,21.38
2023-05-17T04:10:45.354Z,21.37
2023-05-17T04:11:45.282Z,21.38
2023-05-17T04:12:45.355Z,21.38
2023-05-17T04:13:45.431Z,21.37
2023-05-17T04:14:45.530Z,21.40
2023-05-17T04:15:45.588Z,21.36
2023-05-17T04:16:45.664Z,21.37
2023-05-17T04:17:45.825Z,21.38
2023-05-17T04:18:45.933Z,21.38
2023-05-17T04:19:46.031Z,21.36
2023-05-17T04:20:46.022Z,21.36
2023-05-17T04:21:46.091Z,21.38
2023-05-17T04:22:46.181Z,21.37
2023-05-17T04:23:46.262Z,21.34
2023-05-17T04:24:46.343Z,21.33
2023-05-17T04:25:46.433Z,21.34
2023-05-17T04:26:46.590Z,21.36
2023-05-17T04:27:46.605Z,21.36
2023-05-17T04:28:46.706Z,21.38
2023-05-17T04:29:46.795Z,21.38
2023-05-17T04:30:46.861Z,21.37
2023-05-17T04:31:46.953Z,21.37
2023-05-17T04:32:47.061Z,21.36
2023-05-17T04:33:47.162Z,21.37
2023-05-17T04:34:47.216Z,21.37
2023-05-17T04:35:47.316Z,21.37
2023-05-17T04:36:47.390Z,21.37
2023-05-17T04:37:47.474Z,21.38
2023-05-17T04:38:47.625Z,21.38
2023-05-17T04:39:47.646Z,21.37
2023-05-17T04:40:47.735Z,21.37
2023-05-17T04:41:47.887Z,21.37
2023-05-17T04:42:47.897Z,21.37
2023-05-17T04:43:48.013Z,21.38
2023-05-17T04:44:48.137Z,21.34
2023-05-17T04:45:48.228Z,21.38
2023-05-17T04:46:48.339Z,21.38
2023-05-17T04:47:48.333Z,21.38
2023-05-17T04:48:48.548Z,21.37
2023-05-17T04:49:48.461Z,21.37
2023-05-17T04:50:49.123Z,21.37
2023-05-17T04:51:48.643Z,21.38
2023-05-17T04:52:48.698Z,21.36
2023-05-17T04:53:49.650Z,21.36
2023-05-17T04:54:48.848Z,21.34
2023-05-17T04:55:48.933Z,21.36
2023-05-17T04:56:49.014Z,21.36
2023-05-17T04:57:49.224Z,21.36
2023-05-17T04:58:50.994Z,21.34
2023-05-17T04:59:49.198Z,21.36
2023-05-17T05:00:50.130Z,21.36
2023-05-17T05:01:49.219Z,21.36
2023-05-17T05:02:49.305Z,21.36
2023-05-17T05:03:49.384Z,21.37
2023-05-17T05:04:49.294Z,21.36
2023-05-17T05:05:49.295Z,21.34
2023-05-17T05:06:49.317Z,21.36
2023-05-17T05:07:49.332Z,21.37
2023-05-17T05:08:49.350Z,21.37
2023-05-17T05:09:49.372Z,21.36
2023-05-17T05:10:49.399Z,21.36
2023-05-17T05:11:49.421Z,21.34
2023-05-17T05:12:49.641Z,21.36
2023-05-17T05:13:49.640Z,21.37
2023-05-17T05:14:49.479Z,21.37
2023-05-17T05:15:49.489Z,21.37
2023-05-17T05:16:49.505Z,21.36
2023-05-17T05:17:49.590Z,21.37
2023-05-17T05:18:49.693Z,21.37
2023-05-17T05:19:49.623Z,21.38
2023-05-17T05:20:49.569Z,21.36
2023-05-17T05:21:49.635Z,21.30
2023-05-17T05:22:49.608Z,21.29
2023-05-17T05:23:49.621Z,21.30
2023-05-17T05:24:49.649Z,21.29
2023-05-17T05:25:49.667Z,21.27
2023-05-17T05:26:49.675Z,21.30
2023-05-17T05:27:49.696Z,21.27
2023-05-17T05:28:49.757Z,21.26
2023-05-17T05:29:49.874Z,21.26
2023-05-17T05:30:49.882Z,21.27
2023-05-17T05:31:50.646Z,21.27
2023-05-17T05:32:50.162Z,21.27
2023-05-17T05:33:50.159Z,21.23
2023-05-17T05:34:50.125Z,21.22
2023-05-17T05:35:50.145Z,21.17
2023-05-17T05:36:50.157Z,21.14
2023-05-17T05:37:50.210Z,21.14
2023-05-17T05:38:50.200Z,21.13
2023-05-17T05:39:50.223Z,21.14
2023-05-17T05:40:50.281Z,21.14
2023-05-17T05:41:50.288Z,21.16
2023-05-17T05:42:50.315Z,21.13
2023-05-17T05:43:50.372Z,21.19
2023-05-17T05:44:50.446Z,21.19
2023-05-17T05:45:50.619Z,21.22
2023-05-17T05:46:50.624Z,21.22
2023-05-17T05:47:50.729Z,21.24
2023-05-17T05:48:50.750Z,21.29
2023-05-17T05:49:50.770Z,21.27
2023-05-17T05:50:50.830Z,21.30
2023-05-17T05:51:50.893Z,21.31
2023-05-17T05:52:50.961Z,21.33
2023-05-17T05:53:51.035Z,21.33
2023-05-17T05:54:51.077Z,21.37
2023-05-17T05:55:51.127Z,21.41
2023-05-17T05:56:51.183Z,21.43
2023-05-17T05:57:51.222Z,21.44
2023-05-17T05:58:51.271Z,21.45
2023-05-17T05:59:51.308Z,21.47
2023-05-17T06:00:51.357Z,21.53
2023-05-17T06:01:51.489Z,21.54
2023-05-17T06:02:51.492Z,21.57
2023-05-17T06:03:51.466Z,21.57
2023-05-17T06:04:51.497Z,21.62
2023-05-17T06:05:51.675Z,21.62
2023-05-17T06:06:51.586Z,21.62
2023-05-17T06:07:51.585Z,21.66
2023-05-17T06:08:51.601Z,21.68
2023-05-17T06:09:51.625Z,21.68
2023-05-17T06:10:51.653Z,21.74
2023-05-17T06:11:51.677Z,21.75
2023-05-17T06:12:51.698Z,21.75
2023-05-17T06:13:51.729Z,21.80
2023-05-17T06:14:51.734Z,21.81
2023-05-17T06:15:51.748Z,21.84
2023-05-17T06:16:51.775Z,21.85
2023-05-17T06:17:51.917Z,21.84
2023-05-17T06:18:51.879Z,21.93
2023-05-17T06:19:51.934Z,21.93
2023-05-17T06:20:51.852Z,21.98
2023-05-17T06:21:51.906Z,21.98
2023-05-17T06:22:51.969Z,21.96
2023-05-17T06:23:52.054Z,21.92
2023-05-17T06:24:52.163Z,21.99
2023-05-17T06:25:52.122Z,21.99
2023-05-17T06:26:52.146Z,21.96
2023-05-17T06:27:52.168Z,21.98
2023-05-17T06:28:52.195Z,21.93
2023-05-17T06:29:52.217Z,21.95
2023-05-17T06:30:52.227Z,21.93
2023-05-17T06:31:52.242Z,21.93
2023-05-17T06:32:52.279Z,21.92
2023-05-17T06:33:52.409Z,21.96
2023-05-17T06:34:52.318Z,21.89
2023-05-17T06:35:57.444Z,21.93
2023-05-17T06:36:53.166Z,21.92
2023-05-17T06:37:53.174Z,21.95
2023-05-17T06:38:52.356Z,21.93
2023-05-17T06:40:00.034Z,21.91
2023-05-17T06:40:53.457Z,21.89
2023-05-17T06:41:52.386Z,21.89
2023-05-17T06:42:52.409Z,21.91
2023-05-17T06:43:52.408Z,21.88
2023-05-17T06:44:52.428Z,21.89
2023-05-17T06:45:53.197Z,21.88
2023-05-17T06:46:52.451Z,21.88
2023-05-17T06:47:52.544Z,21.87
2023-05-17T06:48:52.607Z,21.85
2023-05-17T06:49:52.572Z,21.84
2023-05-17T06:50:52.486Z,21.85
2023-05-17T06:51:52.486Z,21.84
2023-05-17T06:52:52.510Z,21.82
2023-05-17T06:53:52.518Z,21.84
2023-05-17T06:54:52.536Z,21.82
2023-05-17T06:55:52.841Z,21.77
2023-05-17T06:56:52.564Z,21.77
2023-05-17T06:57:52.581Z,21.77
2023-05-17T06:58:52.578Z,21.75
2023-05-17T06:59:52.590Z,21.77
2023-05-17T07:00:52.604Z,21.74
2023-05-17T07:01:52.622Z,21.71
2023-05-17T07:02:52.763Z,21.71
2023-05-17T07:03:52.798Z,21.71
2023-05-17T07:04:52.682Z,21.69
2023-05-17T07:05:52.901Z,21.71
2023-05-17T07:06:52.678Z,21.68
2023-05-17T07:07:52.762Z,21.66
2023-05-17T07:08:52.727Z,21.64
2023-05-17T07:09:53.673Z,21.65
2023-05-17T07:10:52.764Z,21.64
2023-05-17T07:11:52.760Z,21.61
2023-05-17T07:12:52.954Z,21.61
2023-05-17T07:13:54.336Z,21.62
2023-05-17T07:14:52.802Z,21.61
2023-05-17T07:15:52.818Z,21.61
2023-05-17T07:16:52.834Z,21.60
2023-05-17T07:17:52.934Z,21.61
2023-05-17T07:18:52.949Z,21.62
2023-05-17T07:19:52.933Z,21.57
2023-05-17T07:20:52.904Z,21.53
2023-05-17T07:21:52.989Z,21.51
2023-05-17T07:22:52.946Z,21.48
2023-05-17T07:23:52.948Z,21.45
2023-05-17T07:24:52.962Z,21.45
2023-05-17T07:25:53.011Z,21.43
2023-05-17T07:26:53.078Z,21.40
2023-05-17T07:27:53.144Z,21.40
2023-05-17T07:28:54.608Z,21.37
2023-05-17T07:29:53.221Z,21.37
2023-05-17T07:30:53.276Z,21.36
2023-05-17T07:31:53.314Z,21.36
2023-05-17T07:32:53.456Z,21.36
2023-05-17T07:33:53.461Z,21.34
2023-05-17T07:34:53.472Z,21.36
2023-05-17T07:35:53.550Z,21.33
2023-05-17T07:36:53.673Z,21.34
2023-05-17T07:37:53.861Z,21.34
2023-05-17T07:38:53.623Z,21.33
2023-05-17T07:39:53.649Z,21.33
2023-05-17T07:40:53.653Z,21.34
2023-05-17T07:41:53.689Z,21.33
2023-05-17T07:42:53.708Z,21.31
2023-05-17T07:43:53.785Z,21.33
2023-05-17T07:44:53.752Z,21.34
2023-05-17T07:45:53.764Z,21.33
2023-05-17T07:46:53.804Z,21.34
2023-05-17T07:47:53.894Z,21.36
2023-05-17T07:48:57.372Z,21.33
2023-05-17T07:49:53.857Z,21.34
2023-05-17T07:50:53.852Z,21.33
2023-05-17T07:51:54.723Z,21.33
2023-05-17T07:52:53.880Z,21.31
2023-05-17T07:53:53.899Z,21.31
2023-05-17T07:54:53.955Z,21.33
2023-05-17T07:55:53.916Z,21.31
2023-05-17T07:56:53.934Z,21.30
2023-05-17T07:57:53.949Z,21.31
2023-05-17T07:58:53.954Z,21.33
2023-05-17T07:59:53.969Z,21.33
2023-05-17T08:00:53.981Z,21.33
2023-05-17T08:01:54.003Z,21.33
2023-05-17T08:02:54.758Z,21.31
2023-05-17T08:03:54.021Z,21.31
2023-05-17T08:04:54.066Z,21.30
2023-05-17T08:05:54.073Z,21.33
2023-05-17T08:06:54.056Z,21.31
2023-05-17T08:07:54.064Z,21.34
2023-05-17T08:08:54.084Z,21.31
2023-05-17T08:09:54.095Z,21.33
2023-05-17T08:10:54.201Z,21.31
2023-05-17T08:11:54.138Z,21.33
2023-05-17T08:12:54.146Z,21.30
2023-05-17T08:13:54.165Z,21.31
2023-05-17T08:14:54.174Z,21.33
2023-05-17T08:16:04.979Z,21.31
2023-05-17T08:16:56.170Z,21.31
2023-05-17T08:17:54.277Z,21.33
2023-05-17T08:18:54.366Z,21.33
2023-05-17T08:19:54.313Z,21.31
2023-05-17T08:20:54.262Z,21.33
2023-05-17T08:21:54.275Z,21.33
2023-05-17T08:22:54.301Z,21.34
2023-05-17T08:23:54.304Z,21.33
2023-05-17T08:24:54.316Z,21.33
2023-05-17T08:25:54.554Z,21.33
2023-05-17T08:26:54.362Z,21.34
2023-05-17T08:27:54.388Z,21.33
2023-05-17T08:28:54.432Z,21.33
2023-05-17T08:29:54.388Z,21.33
2023-05-17T08:30:55.227Z,21.34
2023-05-17T08:31:54.407Z,21.34
2023-05-17T08:32:54.591Z,21.34
2023-05-17T08:33:54.491Z,21.34
2023-05-17T08:34:54.473Z,21.33
2023-05-17T08:35:54.758Z,21.31
2023-05-17T08:36:54.537Z,21.33
2023-05-17T08:37:54.526Z,21.34
2023-05-17T08:38:54.545Z,21.34
2023-05-17T08:39:54.648Z,21.33
2023-05-17T08:40:54.599Z,21.34
2023-05-17T08:41:54.603Z,21.33
2023-05-17T08:42:54.608Z,21.33
2023-05-17T08:43:54.622Z,21.33
2023-05-17T08:44:54.643Z,21.33
2023-05-17T08:45:54.742Z,21.33
2023-05-17T08:46:54.684Z,21.34
2023-05-17T08:47:54.754Z,21.31
2023-05-17T08:48:54.748Z,21.33
2023-05-17T08:49:54.795Z,21.34
2023-05-17T08:50:54.738Z,21.33
2023-05-17T08:51:54.755Z,21.34
2023-05-17T08:52:54.785Z,21.33
2023-05-17T08:53:54.861Z,21.33
2023-05-17T08:54:54.802Z,21.33
2023-05-17T08:55:54.818Z,21.34
2023-05-17T08:56:54.852Z,21.34
2023-05-17T08:57:54.883Z,21.36
2023-05-17T08:58:57.616Z,21.36
2023-05-17T08:59:54.865Z,21.36
2023-05-17T09:00:54.885Z,21.34
2023-05-17T09:01:54.899Z,21.36
2023-05-17T09:02:55.009Z,21.36
2023-05-17T09:03:55.204Z,21.37
2023-05-17T09:04:54.995Z,21.33
2023-05-17T09:05:55.043Z,21.38
2023-05-17T09:06:55.767Z,21.38
2023-05-17T09:07:54.994Z,21.34
2023-05-17T09:08:55.488Z,21.34
2023-05-17T09:09:55.781Z,21.34
2023-05-17T09:10:55.051Z,21.37
2023-05-17T09:11:55.061Z,21.31
2023-05-17T09:12:55.118Z,21.36
2023-05-17T09:13:55.107Z,21.33
2023-05-17T09:14:55.082Z,21.34
2023-05-17T09:15:55.096Z,21.36
2023-05-17T09:16:55.097Z,21.34
2023-05-17T09:17:55.360Z,21.33
2023-05-17T09:18:55.219Z,21.36
2023-05-17T09:19:55.251Z,21.34
2023-05-17T09:20:55.147Z,21.34
2023-05-17T09:21:55.162Z,21.33
2023-05-17T09:22:55.180Z,21.33
2023-05-17T09:24:05.379Z,21.34
2023-05-17T09:24:56.211Z,21.34
2023-05-17T09:25:55.220Z,21.34
2023-05-17T09:26:55.225Z,21.34
2023-05-17T09:27:55.296Z,21.36
2023-05-17T09:28:55.250Z,21.33
2023-05-17T09:29:55.320Z,21.34
2023-05-17T09:30:55.275Z,21.34
2023-05-17T09:31:55.296Z,21.33
2023-05-17T09:32:55.321Z,21.33
2023-05-17T09:33:55.349Z,21.36
2023-05-17T09:34:55.330Z,21.36
2023-05-17T09:35:55.347Z,21.34
2023-05-17T09:36:55.374Z,21.33
2023-05-17T09:37:55.384Z,21.34
2023-05-17T09:38:55.407Z,21.34
2023-05-17T09:39:55.408Z,21.37
2023-05-17T09:40:55.421Z,21.34
2023-05-17T09:41:55.443Z,21.36
2023-05-17T09:42:55.447Z,21.36
2023-05-17T09:43:55.464Z,21.36
2023-05-17T09:44:55.492Z,21.37
2023-05-17T09:45:55.683Z,21.34
2023-05-17T09:46:55.503Z,21.37
2023-05-17T09:47:55.593Z,21.34
2023-05-17T09:48:55.611Z,21.36
2023-05-17T09:49:55.557Z,21.36
2023-05-17T09:50:55.572Z,21.37
2023-05-17T09:51:55.605Z,21.36
2023-05-17T09:52:55.606Z,21.36
2023-05-17T09:53:55.625Z,21.34
2023-05-17T09:54:55.660Z,21.34
2023-05-17T09:55:56.202Z,21.36
2023-05-17T09:56:55.696Z,21.34
2023-05-17T09:57:55.683Z,21.31
2023-05-17T09:58:55.697Z,21.36
2023-05-17T09:59:55.714Z,21.36
2023-05-17T10:00:55.732Z,21.34
2023-05-17T10:01:55.828Z,21.34
2023-05-17T10:02:55.963Z,21.34
2023-05-17T10:03:55.831Z,21.36
2023-05-17T10:04:55.848Z,21.36
2023-05-17T10:05:55.823Z,21.36
2023-05-17T10:06:55.838Z,21.34
2023-05-17T10:07:55.930Z,21.36
2023-05-17T10:08:55.881Z,21.36
2023-05-17T10:09:55.921Z,21.36
2023-05-17T10:10:55.935Z,21.36
2023-05-17T10:11:55.959Z,21.34
2023-05-17T10:12:55.984Z,21.36
2023-05-17T10:13:56.018Z,21.36
2023-05-17T10:14:56.144Z,21.36
2023-05-17T10:15:56.085Z,21.36
2023-05-17T10:16:56.102Z,21.37
2023-05-17T10:17:56.164Z,21.36
2023-05-17T10:18:56.288Z,21.33
2023-05-17T10:19:56.370Z,21.36
2023-05-17T10:20:56.224Z,21.36
2023-05-17T10:21:56.635Z,21.34
2023-05-17T10:22:57.986Z,21.34
2023-05-17T10:23:56.309Z,21.33
2023-05-17T10:24:56.394Z,21.34
2023-05-17T10:25:56.345Z,21.34
2023-05-17T10:26:56.357Z,21.36
2023-05-17T10:27:56.390Z,21.36
2023-05-17T10:28:56.421Z,21.34
2023-05-17T10:29:57.261Z,21.34
2023-05-17T10:30:56.465Z,21.33
2023-05-17T10:31:56.488Z,21.34
2023-05-17T10:32:56.608Z,21.33
2023-05-17T10:33:56.612Z,21.36
2023-05-17T10:35:09.571Z,21.36
2023-05-17T10:35:57.537Z,21.34
2023-05-17T10:36:56.619Z,21.34
2023-05-17T10:37:56.562Z,21.33
2023-05-17T10:38:56.602Z,21.34
2023-05-17T10:39:56.590Z,21.34
2023-05-17T10:40:56.600Z,21.34
2023-05-17T10:42:07.151Z,21.36
2023-05-17T10:42:57.623Z,21.34
2023-05-17T10:43:56.632Z,21.36
2023-05-17T10:44:57.268Z,21.33
2023-05-17T10:45:56.665Z,21.33
2023-05-17T10:46:56.693Z,21.34
2023-05-17T10:47:57.700Z,21.33
2023-05-17T10:48:56.785Z,21.33
2023-05-17T10:49:57.258Z,21.31
2023-05-17T10:51:01.808Z,21.30
2023-05-17T10:51:57.736Z,21.33
2023-05-17T10:52:56.824Z,21.31
2023-05-17T10:53:56.761Z,21.31
2023-05-17T10:54:57.253Z,21.31
2023-05-17T10:55:56.802Z,21.34
2023-05-17T10:56:56.814Z,21.31
2023-05-17T10:57:56.834Z,21.30
2023-05-17T10:58:56.916Z,21.31
2023-05-17T10:59:56.881Z,21.30
2023-05-17T11:00:56.882Z,21.31
2023-05-17T11:01:56.892Z,21.30
2023-05-17T11:02:56.996Z,21.33
2023-05-17T11:03:56.925Z,21.31
2023-05-17T11:04:56.953Z,21.29
2023-05-17T11:05:56.987Z,21.30
2023-05-17T11:06:56.959Z,21.30
2023-05-17T11:07:56.968Z,21.31
2023-05-17T11:08:57.037Z,21.30
2023-05-17T11:09:57.076Z,21.29
2023-05-17T11:10:57.017Z,21.30
2023-05-17T11:11:57.803Z,21.29
2023-05-17T11:12:57.041Z,21.29
2023-05-17T11:13:57.070Z,21.29
2023-05-17T11:14:57.086Z,21.27
2023-05-17T11:15:57.114Z,21.29
2023-05-17T11:16:58.209Z,21.27
2023-05-17T11:17:57.262Z,21.27
2023-05-17T11:18:57.289Z,21.30
2023-05-17T11:19:57.281Z,21.29
2023-05-17T11:20:57.418Z,21.29
2023-05-17T11:21:57.229Z,21.29
2023-05-17T11:22:57.204Z,21.29
2023-05-17T11:23:57.227Z,21.26
2023-05-17T11:24:57.243Z,21.26
2023-05-17T11:26:00.412Z,21.27
2023-05-17T11:26:58.316Z,21.29
2023-05-17T11:27:57.282Z,21.27
2023-05-17T11:28:57.292Z,21.30
2023-05-17T11:29:57.297Z,21.26
2023-05-17T11:30:57.316Z,21.26
2023-05-17T11:31:57.339Z,21.29
2023-05-17T11:32:57.380Z,21.27
2023-05-17T11:33:57.398Z,21.27
2023-05-17T11:34:57.361Z,21.26
2023-05-17T11:35:57.410Z,21.26
2023-05-17T11:36:57.410Z,21.24
2023-05-17T11:37:57.780Z,21.23
2023-05-17T11:39:07.362Z,21.26
2023-05-17T11:39:58.447Z,21.24
2023-05-17T11:40:57.454Z,21.26
2023-05-17T11:41:57.481Z,21.24
2023-05-17T11:42:57.506Z,21.22
2023-05-17T11:43:57.518Z,21.24
2023-05-17T11:44:57.542Z,21.24
2023-05-17T11:45:57.732Z,21.24
2023-05-17T11:46:57.599Z,21.23
2023-05-17T11:47:57.648Z,21.26
2023-05-17T11:48:57.677Z,21.26
2023-05-17T11:49:57.603Z,21.23
2023-05-17T11:50:58.816Z,21.22
2023-05-17T11:51:57.662Z,21.22
2023-05-17T11:52:57.656Z,21.23
2023-05-17T11:53:57.678Z,21.23
2023-05-17T11:54:57.694Z,21.22
2023-05-17T11:55:57.699Z,21.23
2023-05-17T11:56:57.714Z,21.24
2023-05-17T11:57:57.724Z,21.24
2023-05-17T11:58:57.814Z,21.23
2023-05-17T11:59:57.759Z,21.23
2023-05-17T12:00:57.779Z,21.22
2023-05-17T12:01:57.767Z,21.20
2023-05-17T12:02:57.806Z,21.22
2023-05-17T12:03:57.810Z,21.22
2023-05-17T12:04:57.989Z,21.22
2023-05-17T12:05:57.926Z,21.20
2023-05-17T12:06:57.873Z,21.20
2023-05-17T12:07:58.805Z,21.19
2023-05-17T12:08:57.936Z,21.20
2023-05-17T12:09:57.978Z,21.19
2023-05-17T12:10:57.974Z,21.19
2023-05-17T12:11:58.002Z,21.17
2023-05-17T12:12:58.035Z,21.19
2023-05-17T12:13:58.064Z,21.19
2023-05-17T12:14:58.105Z,21.20
2023-05-17T12:15:58.138Z,21.17
2023-05-17T12:16:58.149Z,21.19
2023-05-17T12:17:58.214Z,21.17
2023-05-17T12:18:58.442Z,21.17
2023-05-17T12:19:58.446Z,21.20
2023-05-17T12:20:58.266Z,21.20
2023-05-17T12:21:58.290Z,21.20
2023-05-17T12:22:58.326Z,21.19
2023-05-17T12:23:58.346Z,21.20
2023-05-17T12:24:58.510Z,21.20
2023-05-17T12:25:58.399Z,21.22
2023-05-17T12:26:58.431Z,21.23
2023-05-17T12:27:58.456Z,21.22
2023-05-17T12:28:58.549Z,21.22
2023-05-17T12:29:58.507Z,21.23
2023-05-17T12:30:58.556Z,21.20
2023-05-17T12:31:58.564Z,21.23
2023-05-17T12:32:58.645Z,21.22
2023-05-17T12:33:58.687Z,21.22
2023-05-17T12:34:58.656Z,21.22
2023-05-17T12:35:58.657Z,21.20
2023-05-17T12:36:58.674Z,21.22
2023-05-17T12:37:58.699Z,21.20
2023-05-17T12:38:58.724Z,21.20
2023-05-17T12:39:58.736Z,21.20
2023-05-17T12:40:58.741Z,21.20
2023-05-17T12:41:58.769Z,21.19
2023-05-17T12:42:58.803Z,21.17
2023-05-17T12:44:13.641Z,21.19
2023-05-17T12:45:00.309Z,21.22
2023-05-17T12:45:58.830Z,21.22
2023-05-17T12:46:58.842Z,21.23
2023-05-17T12:47:58.922Z,21.20
2023-05-17T12:48:58.898Z,21.20
2023-05-17T12:49:58.852Z,21.19
2023-05-17T12:50:58.874Z,21.20
2023-05-17T12:51:58.884Z,21.20
2023-05-17T12:52:58.901Z,21.23